sensor_id;sensor_type;location;lat;lon;timestamp;pressure;altitude;pressure_sealevel;temperature
67501;BMP180;54349;52.528;19.760;2022-12-07T00:01:46;99910.40;;;22.00
67501;BMP180;54349;52.528;19.760;2022-12-07T00:04:17;99910.80;;;21.90
67501;BMP180;54349;52.528;19.760;2022-12-07T00:06:50;99907.80;;;21.90
67501;BMP180;54349;52.528;19.760;2022-12-07T00:09:20;99906.80;;;21.80
67501;BMP180;54349;52.528;19.760;2022-12-07T00:11:51;99908.40;;;21.80
67501;BMP180;54349;52.528;19.760;2022-12-07T00:14:20;99905.20;;;21.72
67501;BMP180;54349;52.528;19.760;2022-12-07T00:16:50;99906.80;;;21.70
67501;BMP180;54349;52.528;19.760;2022-12-07T00:19:19;99905.60;;;21.64
67501;BMP180;54349;52.528;19.760;2022-12-07T00:21:47;99901.60;;;21.60
67501;BMP180;54349;52.528;19.760;2022-12-07T00:24:16;99899.00;;;21.60
67501;BMP180;54349;52.528;19.760;2022-12-07T00:26:44;99896.20;;;21.50
67501;BMP180;54349;52.528;19.760;2022-12-07T00:29:19;99897.60;;;21.50
67501;BMP180;54349;52.528;19.760;2022-12-07T00:31:47;99896.80;;;21.40
67501;BMP180;54349;52.528;19.760;2022-12-07T00:34:19;99897.00;;;21.40
67501;BMP180;54349;52.528;19.760;2022-12-07T00:36:49;99898.20;;;21.40
67501;BMP180;54349;52.528;19.760;2022-12-07T00:39:17;99898.20;;;21.30
67501;BMP180;54349;52.528;19.760;2022-12-07T00:41:45;99896.40;;;21.30
67501;BMP180;54349;52.528;19.760;2022-12-07T00:44:13;99894.60;;;21.20
67501;BMP180;54349;52.528;19.760;2022-12-07T00:46:41;99891.40;;;21.20
67501;BMP180;54349;52.528;19.760;2022-12-07T00:49:09;99890.40;;;21.20
67501;BMP180;54349;52.528;19.760;2022-12-07T00:51:38;99889.00;;;21.14
67501;BMP180;54349;52.528;19.760;2022-12-07T00:54:06;99887.20;;;21.10
67501;BMP180;54349;52.528;19.760;2022-12-07T00:56:33;99886.60;;;21.10
67501;BMP180;54349;52.528;19.760;2022-12-07T00:59:03;99882.00;;;21.10
67501;BMP180;54349;52.528;19.760;2022-12-07T01:01:35;99878.00;;;21.00
67501;BMP180;54349;52.528;19.760;2022-12-07T01:04:05;99880.60;;;21.00
67501;BMP180;54349;52.528;19.760;2022-12-07T01:06:34;99878.60;;;21.00
67501;BMP180;54349;52.528;19.760;2022-12-07T01:09:03;99876.80;;;20.96
67501;BMP180;54349;52.528;19.760;2022-12-07T01:11:33;99881.60;;;20.90
67501;BMP180;54349;52.528;19.760;2022-12-07T01:14:01;99876.40;;;20.90
67501;BMP180;54349;52.528;19.760;2022-12-07T01:16:31;99872.00;;;20.90
67501;BMP180;54349;52.528;19.760;2022-12-07T01:19:00;99867.40;;;20.82
67501;BMP180;54349;52.528;19.760;2022-12-07T01:21:32;99866.20;;;20.80
67501;BMP180;54349;52.528;19.760;2022-12-07T01:24:06;99863.40;;;20.80
67501;BMP180;54349;52.528;19.760;2022-12-07T01:26:35;99860.20;;;20.80
67501;BMP180;54349;52.528;19.760;2022-12-07T01:29:03;99861.80;;;20.76
67501;BMP180;54349;52.528;19.760;2022-12-07T01:31:32;99859.80;;;20.70
67501;BMP180;54349;52.528;19.760;2022-12-07T01:34:00;99861.80;;;20.70
67501;BMP180;54349;52.528;19.760;2022-12-07T01:36:34;99854.40;;;20.70
67501;BMP180;54349;52.528;19.760;2022-12-07T01:39:07;99855.00;;;20.68
67501;BMP180;54349;52.528;19.760;2022-12-07T01:41:39;99851.40;;;20.60
67501;BMP180;54349;52.528;19.760;2022-12-07T01:44:27;99846.00;;;20.60
67501;BMP180;54349;52.528;19.760;2022-12-07T01:47:03;99841.80;;;20.58
67501;BMP180;54349;52.528;19.760;2022-12-07T01:52:27;99846.80;;;20.50
67501;BMP180;54349;52.528;19.760;2022-12-07T01:55:02;99847.40;;;20.50
67501;BMP180;54349;52.528;19.760;2022-12-07T01:57:33;99848.80;;;20.50
67501;BMP180;54349;52.528;19.760;2022-12-07T02:00:06;99845.40;;;20.40
67501;BMP180;54349;52.528;19.760;2022-12-07T02:03:13;99838.60;;;20.40
67501;BMP180;54349;52.528;19.760;2022-12-07T02:05:44;99838.80;;;20.38
67501;BMP180;54349;52.528;19.760;2022-12-07T02:08:14;99834.60;;;20.30
67501;BMP180;54349;52.528;19.760;2022-12-07T02:10:43;99832.00;;;20.30
67501;BMP180;54349;52.528;19.760;2022-12-07T02:13:19;99830.20;;;20.30
67501;BMP180;54349;52.528;19.760;2022-12-07T02:41:00;99809.80;;;20.10
67501;BMP180;54349;52.528;19.760;2022-12-07T02:43:38;99813.60;;;20.04
67501;BMP180;54349;52.528;19.760;2022-12-07T02:46:34;99805.80;;;20.00
67501;BMP180;54349;52.528;19.760;2022-12-07T02:49:06;99807.00;;;20.00
67501;BMP180;54349;52.528;19.760;2022-12-07T02:51:41;99804.60;;;20.00
67501;BMP180;54349;52.528;19.760;2022-12-07T02:54:16;99802.20;;;19.94
67501;BMP180;54349;52.528;19.760;2022-12-07T02:56:51;99805.20;;;19.92
67501;BMP180;54349;52.528;19.760;2022-12-07T03:02:58;99804.20;;;19.90
67501;BMP180;54349;52.528;19.760;2022-12-07T03:11:14;99791.60;;;19.80
67501;BMP180;54349;52.528;19.760;2022-12-07T03:16:41;99788.60;;;19.80
67501;BMP180;54349;52.528;19.760;2022-12-07T03:19:16;99789.20;;;19.80
67501;BMP180;54349;52.528;19.760;2022-12-07T03:22:08;99787.80;;;19.78
67501;BMP180;54349;52.528;19.760;2022-12-07T03:24:51;99783.20;;;19.70
67501;BMP180;54349;52.528;19.760;2022-12-07T03:27:26;99781.60;;;19.70
67501;BMP180;54349;52.528;19.760;2022-12-07T03:30:02;99779.80;;;19.70
67501;BMP180;54349;52.528;19.760;2022-12-07T03:32:45;99776.80;;;19.70
67501;BMP180;54349;52.528;19.760;2022-12-07T03:35:32;99773.40;;;19.70
67501;BMP180;54349;52.528;19.760;2022-12-07T03:41:03;99773.20;;;19.60
67501;BMP180;54349;52.528;19.760;2022-12-07T03:43:35;99774.20;;;19.60
67501;BMP180;54349;52.528;19.760;2022-12-07T03:49:27;99775.20;;;19.60
67501;BMP180;54349;52.528;19.760;2022-12-07T03:52:30;99772.00;;;19.60
67501;BMP180;54349;52.528;19.760;2022-12-07T03:55:22;99766.20;;;19.54
67501;BMP180;54349;52.528;19.760;2022-12-07T03:57:56;99762.60;;;19.52
67501;BMP180;54349;52.528;19.760;2022-12-07T04:00:26;99757.80;;;19.50
67501;BMP180;54349;52.528;19.760;2022-12-07T04:02:55;99757.80;;;19.50
67501;BMP180;54349;52.528;19.760;2022-12-07T04:05:24;99754.60;;;19.50
67501;BMP180;54349;52.528;19.760;2022-12-07T04:07:53;99755.60;;;19.50
67501;BMP180;54349;52.528;19.760;2022-12-07T04:10:21;99750.80;;;19.50
67501;BMP180;54349;52.528;19.760;2022-12-07T04:12:49;99751.00;;;19.40
67501;BMP180;54349;52.528;19.760;2022-12-07T04:15:17;99748.20;;;19.40
67501;BMP180;54349;52.528;19.760;2022-12-07T04:17:45;99750.40;;;19.40
67501;BMP180;54349;52.528;19.760;2022-12-07T04:20:13;99748.00;;;19.40
67501;BMP180;54349;52.528;19.760;2022-12-07T04:22:42;99742.80;;;19.40
67501;BMP180;54349;52.528;19.760;2022-12-07T04:25:10;99743.20;;;19.40
67501;BMP180;54349;52.528;19.760;2022-12-07T04:27:38;99745.60;;;19.40
67501;BMP180;54349;52.528;19.760;2022-12-07T04:30:09;99747.40;;;19.34
67501;BMP180;54349;52.528;19.760;2022-12-07T04:32:37;99745.20;;;19.30
67501;BMP180;54349;52.528;19.760;2022-12-07T04:35:06;99744.60;;;19.30
67501;BMP180;54349;52.528;19.760;2022-12-07T04:37:34;99741.40;;;19.22
67501;BMP180;54349;52.528;19.760;2022-12-07T04:40:03;99741.40;;;19.20
67501;BMP180;54349;52.528;19.760;2022-12-07T04:42:32;99734.60;;;19.20
67501;BMP180;54349;52.528;19.760;2022-12-07T04:45:00;99735.20;;;19.30
67501;BMP180;54349;52.528;19.760;2022-12-07T04:47:28;99735.80;;;19.38
67501;BMP180;54349;52.528;19.760;2022-12-07T04:49:56;99736.60;;;19.40
67501;BMP180;54349;52.528;19.760;2022-12-07T04:52:24;99731.20;;;19.50
67501;BMP180;54349;52.528;19.760;2022-12-07T04:54:52;99730.60;;;19.60
67501;BMP180;54349;52.528;19.760;2022-12-07T04:57:20;99731.80;;;19.70
67501;BMP180;54349;52.528;19.760;2022-12-07T04:59:48;99726.20;;;19.76
67501;BMP180;54349;52.528;19.760;2022-12-07T05:02:16;99726.00;;;19.80
67501;BMP180;54349;52.528;19.760;2022-12-07T05:04:44;99725.00;;;19.90
67501;BMP180;54349;52.528;19.760;2022-12-07T05:07:12;99721.80;;;19.90
67501;BMP180;54349;52.528;19.760;2022-12-07T05:09:40;99721.20;;;19.98
67501;BMP180;54349;52.528;19.760;2022-12-07T05:12:08;99722.00;;;20.00
67501;BMP180;54349;52.528;19.760;2022-12-07T05:14:37;99715.20;;;20.10
67501;BMP180;54349;52.528;19.760;2022-12-07T05:17:05;99712.80;;;20.10
67501;BMP180;54349;52.528;19.760;2022-12-07T05:19:33;99711.60;;;20.20
67501;BMP180;54349;52.528;19.760;2022-12-07T05:22:01;99712.00;;;20.20
67501;BMP180;54349;52.528;19.760;2022-12-07T05:24:28;99708.80;;;20.30
67501;BMP180;54349;52.528;19.760;2022-12-07T05:26:57;99710.20;;;20.30
67501;BMP180;54349;52.528;19.760;2022-12-07T05:29:24;99713.60;;;20.30
67501;BMP180;54349;52.528;19.760;2022-12-07T05:31:53;99711.40;;;20.36
67501;BMP180;54349;52.528;19.760;2022-12-07T05:34:21;99706.60;;;20.40
67501;BMP180;54349;52.528;19.760;2022-12-07T05:36:49;99708.40;;;20.40
67501;BMP180;54349;52.528;19.760;2022-12-07T05:39:18;99711.20;;;20.40
67501;BMP180;54349;52.528;19.760;2022-12-07T05:41:46;99712.00;;;20.50
67501;BMP180;54349;52.528;19.760;2022-12-07T05:44:32;99713.00;;;20.50
67501;BMP180;54349;52.528;19.760;2022-12-07T05:47:00;99713.80;;;20.60
67501;BMP180;54349;52.528;19.760;2022-12-07T05:49:28;99717.00;;;20.70
67501;BMP180;54349;52.528;19.760;2022-12-07T05:51:57;99716.20;;;20.70
67501;BMP180;54349;52.528;19.760;2022-12-07T05:54:25;99712.40;;;20.70
67501;BMP180;54349;52.528;19.760;2022-12-07T05:56:53;99714.00;;;20.64
67501;BMP180;54349;52.528;19.760;2022-12-07T05:59:22;99707.60;;;20.60
67501;BMP180;54349;52.528;19.760;2022-12-07T06:02:07;99714.40;;;20.60
67501;BMP180;54349;52.528;19.760;2022-12-07T06:04:43;99707.20;;;20.60
67501;BMP180;54349;52.528;19.760;2022-12-07T06:07:14;99709.00;;;20.60
67501;BMP180;54349;52.528;19.760;2022-12-07T06:09:43;99705.20;;;20.60
67501;BMP180;54349;52.528;19.760;2022-12-07T06:12:13;99709.80;;;20.60
67501;BMP180;54349;52.528;19.760;2022-12-07T06:15:00;99704.20;;;20.60
67501;BMP180;54349;52.528;19.760;2022-12-07T06:17:28;99709.40;;;20.58
67501;BMP180;54349;52.528;19.760;2022-12-07T06:19:56;99701.80;;;20.56
67501;BMP180;54349;52.528;19.760;2022-12-07T06:22:24;99705.40;;;20.50
67501;BMP180;54349;52.528;19.760;2022-12-07T06:24:53;99706.00;;;20.60
67501;BMP180;54349;52.528;19.760;2022-12-07T06:27:21;99705.60;;;20.68
67501;BMP180;54349;52.528;19.760;2022-12-07T06:29:49;99706.00;;;20.70
67501;BMP180;54349;52.528;19.760;2022-12-07T06:32:17;99704.40;;;20.70
67501;BMP180;54349;52.528;19.760;2022-12-07T06:34:45;99708.20;;;20.70
67501;BMP180;54349;52.528;19.760;2022-12-07T06:37:15;99709.20;;;20.70
67501;BMP180;54349;52.528;19.760;2022-12-07T06:39:43;99707.40;;;20.70
67501;BMP180;54349;52.528;19.760;2022-12-07T06:42:11;99709.60;;;20.70
67501;BMP180;54349;52.528;19.760;2022-12-07T06:44:39;99707.00;;;20.70
67501;BMP180;54349;52.528;19.760;2022-12-07T06:47:08;99708.60;;;20.70
67501;BMP180;54349;52.528;19.760;2022-12-07T06:49:57;99714.40;;;20.70
67501;BMP180;54349;52.528;19.760;2022-12-07T06:52:26;99707.00;;;20.70
67501;BMP180;54349;52.528;19.760;2022-12-07T06:54:54;99711.40;;;20.70
67501;BMP180;54349;52.528;19.760;2022-12-07T06:57:22;99709.20;;;20.70
67501;BMP180;54349;52.528;19.760;2022-12-07T06:59:50;99712.60;;;20.70
67501;BMP180;54349;52.528;19.760;2022-12-07T07:02:18;99715.40;;;20.70
67501;BMP180;54349;52.528;19.760;2022-12-07T07:04:46;99713.40;;;20.70
67501;BMP180;54349;52.528;19.760;2022-12-07T07:07:14;99712.00;;;20.70
67501;BMP180;54349;52.528;19.760;2022-12-07T07:09:42;99718.00;;;20.70
67501;BMP180;54349;52.528;19.760;2022-12-07T07:12:10;99710.20;;;20.70
67501;BMP180;54349;52.528;19.760;2022-12-07T07:14:40;99714.60;;;20.80
67501;BMP180;54349;52.528;19.760;2022-12-07T07:17:08;99716.00;;;20.86
67501;BMP180;54349;52.528;19.760;2022-12-07T07:19:36;99724.00;;;20.90
67501;BMP180;54349;52.528;19.760;2022-12-07T07:22:06;99724.00;;;20.90
67501;BMP180;54349;52.528;19.760;2022-12-07T07:24:35;99728.00;;;20.90
67501;BMP180;54349;52.528;19.760;2022-12-07T07:27:03;99729.40;;;20.90
67501;BMP180;54349;52.528;19.760;2022-12-07T07:29:32;99731.60;;;20.96
67501;BMP180;54349;52.528;19.760;2022-12-07T07:32:01;99728.40;;;20.98
67501;BMP180;54349;52.528;19.760;2022-12-07T07:34:34;99725.80;;;21.00
67501;BMP180;54349;52.528;19.760;2022-12-07T07:37:04;99732.80;;;21.06
67501;BMP180;54349;52.528;19.760;2022-12-07T07:39:33;99736.00;;;21.10
67501;BMP180;54349;52.528;19.760;2022-12-07T07:42:05;99735.00;;;21.10
67501;BMP180;54349;52.528;19.760;2022-12-07T07:44:37;99737.80;;;21.10
67501;BMP180;54349;52.528;19.760;2022-12-07T07:47:07;99739.60;;;21.12
67501;BMP180;54349;52.528;19.760;2022-12-07T07:49:37;99738.80;;;21.12
67501;BMP180;54349;52.528;19.760;2022-12-07T07:52:14;99742.20;;;21.10
67501;BMP180;54349;52.528;19.760;2022-12-07T07:54:43;99743.20;;;21.10
67501;BMP180;54349;52.528;19.760;2022-12-07T07:57:11;99741.80;;;21.20
67501;BMP180;54349;52.528;19.760;2022-12-07T07:59:41;99739.80;;;21.20
67501;BMP180;54349;52.528;19.760;2022-12-07T08:02:16;99743.00;;;21.20
67501;BMP180;54349;52.528;19.760;2022-12-07T08:04:46;99749.20;;;21.20
67501;BMP180;54349;52.528;19.760;2022-12-07T08:07:15;99748.20;;;21.22
67501;BMP180;54349;52.528;19.760;2022-12-07T08:09:44;99746.20;;;21.28
67501;BMP180;54349;52.528;19.760;2022-12-07T08:12:13;99746.40;;;21.20
67501;BMP180;54349;52.528;19.760;2022-12-07T08:14:42;99751.20;;;21.20
67501;BMP180;54349;52.528;19.760;2022-12-07T08:17:11;99744.00;;;21.26
67501;BMP180;54349;52.528;19.760;2022-12-07T08:19:41;99749.60;;;21.30
67501;BMP180;54349;52.528;19.760;2022-12-07T08:22:10;99743.20;;;21.30
67501;BMP180;54349;52.528;19.760;2022-12-07T08:24:39;99745.40;;;21.30
67501;BMP180;54349;52.528;19.760;2022-12-07T08:27:07;99745.00;;;21.30
67501;BMP180;54349;52.528;19.760;2022-12-07T08:29:37;99751.60;;;21.30
67501;BMP180;54349;52.528;19.760;2022-12-07T08:32:05;99757.60;;;21.30
67501;BMP180;54349;52.528;19.760;2022-12-07T08:34:37;99756.60;;;21.30
67501;BMP180;54349;52.528;19.760;2022-12-07T08:37:05;99759.80;;;21.30
67501;BMP180;54349;52.528;19.760;2022-12-07T08:39:34;99759.40;;;21.30
67501;BMP180;54349;52.528;19.760;2022-12-07T08:42:03;99760.80;;;21.28
67501;BMP180;54349;52.528;19.760;2022-12-07T08:44:33;99762.60;;;21.20
67501;BMP180;54349;52.528;19.760;2022-12-07T08:47:05;99755.80;;;21.26
67501;BMP180;54349;52.528;19.760;2022-12-07T08:49:41;99758.80;;;21.30
67501;BMP180;54349;52.528;19.760;2022-12-07T08:52:11;99755.80;;;21.30
67501;BMP180;54349;52.528;19.760;2022-12-07T08:54:41;99753.40;;;21.30
67501;BMP180;54349;52.528;19.760;2022-12-07T08:57:11;99751.60;;;21.30
67501;BMP180;54349;52.528;19.760;2022-12-07T08:59:40;99756.40;;;21.36
67501;BMP180;54349;52.528;19.760;2022-12-07T09:02:09;99753.60;;;21.32
67501;BMP180;54349;52.528;19.760;2022-12-07T09:04:38;99751.40;;;21.34
67501;BMP180;54349;52.528;19.760;2022-12-07T09:07:07;99748.40;;;21.40
67501;BMP180;54349;52.528;19.760;2022-12-07T09:09:36;99743.40;;;21.40
67501;BMP180;54349;52.528;19.760;2022-12-07T09:12:05;99742.20;;;21.40
67501;BMP180;54349;52.528;19.760;2022-12-07T09:14:33;99733.40;;;21.40
67501;BMP180;54349;52.528;19.760;2022-12-07T09:17:11;99728.20;;;21.40
67501;BMP180;54349;52.528;19.760;2022-12-07T09:19:40;99727.60;;;21.40
67501;BMP180;54349;52.528;19.760;2022-12-07T09:22:14;99728.80;;;21.40
67501;BMP180;54349;52.528;19.760;2022-12-07T09:24:44;99731.80;;;21.46
67501;BMP180;54349;52.528;19.760;2022-12-07T09:27:17;99728.20;;;21.50
67501;BMP180;54349;52.528;19.760;2022-12-07T09:29:46;99728.00;;;21.50
67501;BMP180;54349;52.528;19.760;2022-12-07T09:32:15;99725.20;;;21.60
67501;BMP180;54349;52.528;19.760;2022-12-07T09:34:43;99726.40;;;21.60
67501;BMP180;54349;52.528;19.760;2022-12-07T09:37:12;99731.00;;;21.60
67501;BMP180;54349;52.528;19.760;2022-12-07T09:39:40;99727.80;;;21.60
67501;BMP180;54349;52.528;19.760;2022-12-07T09:42:29;99727.20;;;21.70
67501;BMP180;54349;52.528;19.760;2022-12-07T09:45:00;99734.20;;;21.70
67501;BMP180;54349;52.528;19.760;2022-12-07T09:47:29;99726.40;;;21.70
67501;BMP180;54349;52.528;19.760;2022-12-07T09:50:07;99717.80;;;21.70
67501;BMP180;54349;52.528;19.760;2022-12-07T09:52:41;99718.20;;;21.70
67501;BMP180;54349;52.528;19.760;2022-12-07T09:55:15;99720.20;;;21.70
67501;BMP180;54349;52.528;19.760;2022-12-07T09:57:43;99720.40;;;21.70
67501;BMP180;54349;52.528;19.760;2022-12-07T10:00:19;99713.60;;;21.70
67501;BMP180;54349;52.528;19.760;2022-12-07T10:02:58;99714.80;;;21.70
67501;BMP180;54349;52.528;19.760;2022-12-07T10:05:42;99709.20;;;21.70
67501;BMP180;54349;52.528;19.760;2022-12-07T10:08:13;99709.60;;;21.70
67501;BMP180;54349;52.528;19.760;2022-12-07T10:10:42;99709.00;;;21.70
67501;BMP180;54349;52.528;19.760;2022-12-07T10:13:14;99711.60;;;21.70
67501;BMP180;54349;52.528;19.760;2022-12-07T10:15:55;99709.80;;;21.60
67501;BMP180;54349;52.528;19.760;2022-12-07T10:18:41;99713.00;;;21.60
67501;BMP180;54349;52.528;19.760;2022-12-07T10:21:18;99705.20;;;21.60
67501;BMP180;54349;52.528;19.760;2022-12-07T10:24:14;99702.00;;;21.60
67501;BMP180;54349;52.528;19.760;2022-12-07T10:29:38;99701.60;;;21.50
67501;BMP180;54349;52.528;19.760;2022-12-07T10:32:31;99697.20;;;21.50
67501;BMP180;54349;52.528;19.760;2022-12-07T10:35:29;99696.60;;;21.50
67501;BMP180;54349;52.528;19.760;2022-12-07T10:38:00;99695.60;;;21.50
67501;BMP180;54349;52.528;19.760;2022-12-07T10:40:36;99696.20;;;21.50
67501;BMP180;54349;52.528;19.760;2022-12-07T10:46:20;99688.40;;;21.50
67501;BMP180;54349;52.528;19.760;2022-12-07T10:49:01;99685.40;;;21.50
67501;BMP180;54349;52.528;19.760;2022-12-07T10:57:36;99678.40;;;21.50
67501;BMP180;54349;52.528;19.760;2022-12-07T11:00:43;99678.20;;;21.52
67501;BMP180;54349;52.528;19.760;2022-12-07T11:03:30;99672.20;;;21.60
67501;BMP180;54349;52.528;19.760;2022-12-07T11:06:23;99672.00;;;21.60
67501;BMP180;54349;52.528;19.760;2022-12-07T11:12:36;99667.60;;;21.60
67501;BMP180;54349;52.528;19.760;2022-12-07T11:15:33;99668.00;;;21.60
67501;BMP180;54349;52.528;19.760;2022-12-07T11:18:24;99658.40;;;21.60
67501;BMP180;54349;52.528;19.760;2022-12-07T11:24:19;99654.80;;;21.60
67501;BMP180;54349;52.528;19.760;2022-12-07T11:37:44;99644.20;;;21.70
67501;BMP180;54349;52.528;19.760;2022-12-07T11:40:36;99642.00;;;21.70
67501;BMP180;54349;52.528;19.760;2022-12-07T11:43:27;99638.40;;;21.60
67501;BMP180;54349;52.528;19.760;2022-12-07T11:46:05;99633.20;;;21.60
67501;BMP180;54349;52.528;19.760;2022-12-07T11:48:41;99633.60;;;21.60
67501;BMP180;54349;52.528;19.760;2022-12-07T11:51:14;99633.80;;;21.60
67501;BMP180;54349;52.528;19.760;2022-12-07T11:53:55;99627.00;;;21.60
67501;BMP180;54349;52.528;19.760;2022-12-07T11:56:27;99626.60;;;21.60
67501;BMP180;54349;52.528;19.760;2022-12-07T11:59:11;99624.60;;;21.70
67501;BMP180;54349;52.528;19.760;2022-12-07T12:04:29;99628.00;;;21.76
67501;BMP180;54349;52.528;19.760;2022-12-07T12:07:00;99622.00;;;21.80
67501;BMP180;54349;52.528;19.760;2022-12-07T12:09:59;99623.60;;;21.86
67501;BMP180;54349;52.528;19.760;2022-12-07T12:12:40;99619.20;;;21.90
67501;BMP180;54349;52.528;19.760;2022-12-07T12:16:02;99618.20;;;21.90
67501;BMP180;54349;52.528;19.760;2022-12-07T12:21:28;99615.20;;;22.00
67501;BMP180;54349;52.528;19.760;2022-12-07T12:24:11;99614.40;;;22.00
67501;BMP180;54349;52.528;19.760;2022-12-07T12:26:52;99604.00;;;22.10
67501;BMP180;54349;52.528;19.760;2022-12-07T12:32:16;99603.80;;;22.20
67501;BMP180;54349;52.528;19.760;2022-12-07T12:42:56;99590.00;;;22.30
67501;BMP180;54349;52.528;19.760;2022-12-07T12:45:30;99592.20;;;22.40
67501;BMP180;54349;52.528;19.760;2022-12-07T12:48:03;99595.00;;;22.40
67501;BMP180;54349;52.528;19.760;2022-12-07T12:50:37;99595.40;;;22.40
67501;BMP180;54349;52.528;19.760;2022-12-07T12:53:23;99593.80;;;22.50
67501;BMP180;54349;52.528;19.760;2022-12-07T12:58:42;99587.40;;;22.50
67501;BMP180;54349;52.528;19.760;2022-12-07T13:01:39;99587.00;;;22.50
67501;BMP180;54349;52.528;19.760;2022-12-07T13:04:28;99589.60;;;22.50
67501;BMP180;54349;52.528;19.760;2022-12-07T13:06:58;99586.80;;;22.60
67501;BMP180;54349;52.528;19.760;2022-12-07T13:09:32;99589.60;;;22.60
67501;BMP180;54349;52.528;19.760;2022-12-07T13:12:12;99587.20;;;22.60
67501;BMP180;54349;52.528;19.760;2022-12-07T13:14:53;99584.00;;;22.60
67501;BMP180;54349;52.528;19.760;2022-12-07T13:20:00;99578.20;;;22.60
67501;BMP180;54349;52.528;19.760;2022-12-07T13:28:02;99579.20;;;22.70
67501;BMP180;54349;52.528;19.760;2022-12-07T13:30:47;99582.20;;;22.70
67501;BMP180;54349;52.528;19.760;2022-12-07T13:33:18;99580.20;;;22.70
67501;BMP180;54349;52.528;19.760;2022-12-07T13:35:47;99579.20;;;22.70
67501;BMP180;54349;52.528;19.760;2022-12-07T13:38:36;99580.00;;;22.78
67501;BMP180;54349;52.528;19.760;2022-12-07T13:41:13;99577.80;;;22.80
67501;BMP180;54349;52.528;19.760;2022-12-07T13:44:19;99580.20;;;22.80
67501;BMP180;54349;52.528;19.760;2022-12-07T13:49:33;99577.80;;;22.80
67501;BMP180;54349;52.528;19.760;2022-12-07T13:57:33;99575.40;;;22.80
67501;BMP180;54349;52.528;19.760;2022-12-07T14:00:13;99573.00;;;22.80
67501;BMP180;54349;52.528;19.760;2022-12-07T14:05:44;99564.20;;;22.80
67501;BMP180;54349;52.528;19.760;2022-12-07T14:13:37;99567.80;;;22.88
67501;BMP180;54349;52.528;19.760;2022-12-07T14:19:00;99564.80;;;22.90
67501;BMP180;54349;52.528;19.760;2022-12-07T14:21:33;99558.00;;;22.80
67501;BMP180;54349;52.528;19.760;2022-12-07T14:24:16;99555.60;;;22.80
67501;BMP180;54349;52.528;19.760;2022-12-07T14:26:50;99558.20;;;22.70
67501;BMP180;54349;52.528;19.760;2022-12-07T14:31:59;99559.20;;;22.60
67501;BMP180;54349;52.528;19.760;2022-12-07T14:34:33;99559.20;;;22.54
67501;BMP180;54349;52.528;19.760;2022-12-07T14:37:01;99559.80;;;22.50
67501;BMP180;54349;52.528;19.760;2022-12-07T14:39:29;99556.20;;;22.50
67501;BMP180;54349;52.528;19.760;2022-12-07T14:41:58;99555.40;;;22.40
67501;BMP180;54349;52.528;19.760;2022-12-07T14:44:26;99550.80;;;22.40
67501;BMP180;54349;52.528;19.760;2022-12-07T14:47:02;99542.60;;;22.30
67501;BMP180;54349;52.528;19.760;2022-12-07T14:49:52;99545.60;;;22.30
67501;BMP180;54349;52.528;19.760;2022-12-07T14:52:29;99543.40;;;22.20
67501;BMP180;54349;52.528;19.760;2022-12-07T14:55:29;99544.60;;;22.20
67501;BMP180;54349;52.528;19.760;2022-12-07T14:57:58;99543.00;;;22.20
67501;BMP180;54349;52.528;19.760;2022-12-07T15:00:28;99544.40;;;22.20
67501;BMP180;54349;52.528;19.760;2022-12-07T15:02:57;99535.60;;;22.20
67501;BMP180;54349;52.528;19.760;2022-12-07T15:05:25;99533.00;;;22.20
67501;BMP180;54349;52.528;19.760;2022-12-07T15:07:53;99531.80;;;22.18
67501;BMP180;54349;52.528;19.760;2022-12-07T15:10:27;99531.80;;;22.10
67501;BMP180;54349;52.528;19.760;2022-12-07T15:13:02;99524.80;;;22.10
67501;BMP180;54349;52.528;19.760;2022-12-07T15:15:52;99529.80;;;22.10
67501;BMP180;54349;52.528;19.760;2022-12-07T15:18:23;99526.80;;;22.10
67501;BMP180;54349;52.528;19.760;2022-12-07T15:20:52;99524.20;;;22.00
67501;BMP180;54349;52.528;19.760;2022-12-07T15:23:20;99531.80;;;22.00
67501;BMP180;54349;52.528;19.760;2022-12-07T15:25:49;99529.80;;;22.00
67501;BMP180;54349;52.528;19.760;2022-12-07T15:28:17;99537.20;;;22.00
67501;BMP180;54349;52.528;19.760;2022-12-07T15:30:46;99534.80;;;21.90
67501;BMP180;54349;52.528;19.760;2022-12-07T15:33:14;99536.00;;;21.90
67501;BMP180;54349;52.528;19.760;2022-12-07T15:35:45;99538.60;;;21.90
67501;BMP180;54349;52.528;19.760;2022-12-07T15:38:13;99534.40;;;21.80
67501;BMP180;54349;52.528;19.760;2022-12-07T15:40:41;99538.40;;;21.80
67501;BMP180;54349;52.528;19.760;2022-12-07T15:43:09;99541.00;;;21.80
67501;BMP180;54349;52.528;19.760;2022-12-07T15:45:57;99540.80;;;21.72
67501;BMP180;54349;52.528;19.760;2022-12-07T15:48:27;99543.60;;;21.70
67501;BMP180;54349;52.528;19.760;2022-12-07T15:51:08;99547.80;;;21.70
67501;BMP180;54349;52.528;19.760;2022-12-07T15:53:37;99546.40;;;21.70
67501;BMP180;54349;52.528;19.760;2022-12-07T15:56:07;99548.80;;;21.64
67501;BMP180;54349;52.528;19.760;2022-12-07T15:58:35;99549.80;;;21.60
67501;BMP180;54349;52.528;19.760;2022-12-07T16:01:30;99556.80;;;21.60
67501;BMP180;54349;52.528;19.760;2022-12-07T16:03:58;99559.20;;;21.52
67501;BMP180;54349;52.528;19.760;2022-12-07T16:06:27;99550.40;;;21.50
67501;BMP180;54349;52.528;19.760;2022-12-07T16:08:55;99540.40;;;21.50
67501;BMP180;54349;52.528;19.760;2022-12-07T16:11:23;99542.80;;;21.50
67501;BMP180;54349;52.528;19.760;2022-12-07T16:13:51;99543.40;;;21.42
67501;BMP180;54349;52.528;19.760;2022-12-07T16:16:20;99540.80;;;21.40
67501;BMP180;54349;52.528;19.760;2022-12-07T16:18:51;99540.80;;;21.40
67501;BMP180;54349;52.528;19.760;2022-12-07T16:21:20;99538.40;;;21.40
67501;BMP180;54349;52.528;19.760;2022-12-07T16:23:52;99542.20;;;21.40
67501;BMP180;54349;52.528;19.760;2022-12-07T16:26:21;99544.60;;;21.34
67501;BMP180;54349;52.528;19.760;2022-12-07T16:28:52;99553.20;;;21.30
67501;BMP180;54349;52.528;19.760;2022-12-07T16:31:25;99557.00;;;21.30
67501;BMP180;54349;52.528;19.760;2022-12-07T16:33:57;99561.00;;;21.20
67501;BMP180;54349;52.528;19.760;2022-12-07T16:36:26;99555.00;;;21.20